Time;durP1;ratioP1;P1;durP2;ratioP2;P2;SDS_P1;SDS_P2;PMS_P1;PMS_P2;Temp;Humidity;BMP_temperature;BMP_pressure;BME280_temperature;BME280_humidity;BME280_pressure;Samples;Min_cycle;Max_cycle;Signal;HPM_P1;HPM_P2
2021/11/03 00:01:12;;;;;;;6.80;5.67;;;;;;;6.39;81.95;94912.06;1779614;81;21096;-68
2021/11/03 00:03:39;;;;;;;8.37;6.17;;;;;;;6.36;81.71;94923.05;1780001;81;20972;-68
2021/11/03 00:06:06;;;;;;;9.77;6.10;;;;;;;6.31;81.87;94930.09;1779560;81;21098;-68
2021/11/03 00:08:34;;;;;;;10.47;6.43;;;;;;;6.27;82.24;94934.49;1779989;80;21475;-68
2021/11/03 00:11:00;;;;;;;7.90;6.03;;;;;;;6.26;82.20;94939.33;1779773;81;21153;-68
2021/11/03 00:13:29;;;;;;;8.77;5.70;;;;;;;6.24;82.26;94936.70;1750163;81;21481;-68
2021/11/03 00:15:57;;;;;;;7.97;5.93;;;;;;;6.24;82.66;94943.26;1779995;81;21015;-67
2021/11/03 00:18:25;;;;;;;8.10;5.50;;;;;;;6.24;82.27;94935.40;1779716;81;20984;-67
2021/11/03 00:20:52;;;;;;;10.80;6.17;;;;;;;6.24;82.68;94937.16;1779602;81;21094;-68
2021/11/03 00:23:19;;;;;;;6.90;5.30;;;;;;;6.24;82.53;94946.33;1779985;81;21011;-68
2021/11/03 00:25:46;;;;;;;7.27;5.80;;;;;;;6.26;82.94;94944.56;1779577;81;21103;-68
2021/11/03 00:28:15;;;;;;;8.57;5.67;;;;;;;6.25;82.79;94950.70;1779747;81;21129;-68
2021/11/03 00:30:44;;;;;;;7.80;5.57;;;;;;;6.23;82.80;94960.33;1779851;81;21059;-68
2021/11/03 00:33:11;;;;;;;8.30;5.10;;;;;;;6.24;82.89;94958.97;1779984;81;21606;-68
2021/11/03 00:35:38;;;;;;;6.40;4.90;;;;;;;6.21;82.95;94964.70;1779643;80;21095;-68
2021/11/03 00:38:05;;;;;;;6.53;4.80;;;;;;;6.22;82.90;94966.02;1779909;81;21013;-68
2021/11/03 00:40:32;;;;;;;6.23;5.13;;;;;;;6.22;82.69;94973.88;1779590;81;21107;-68
2021/11/03 00:42:59;;;;;;;6.63;4.80;;;;;;;6.18;82.69;94979.16;1779911;81;21018;-68
2021/11/03 00:45:26;;;;;;;5.90;4.53;;;;;;;6.13;82.76;94984.89;1750555;81;21074;-68
2021/11/03 00:47:53;;;;;;;5.47;4.13;;;;;;;6.04;82.88;94986.70;1779522;81;21524;-68
2021/11/03 00:50:22;;;;;;;6.27;4.43;;;;;;;5.98;82.57;94985.47;1783711;80;21151;-68
2021/11/03 00:52:50;;;;;;;5.80;3.43;;;;;;;5.85;82.35;94987.77;1787277;80;20971;-68
2021/11/03 00:55:19;;;;;;;4.63;3.13;;;;;;;5.75;82.30;94988.75;1787005;80;20979;-68
2021/11/03 00:57:46;;;;;;;3.77;3.20;;;;;;;5.61;82.02;94986.24;1787205;80;20976;-68
2021/11/03 01:00:16;;;;;;;5.13;3.37;;;;;;;5.47;81.94;94988.10;1786714;80;21600;-68
2021/11/03 01:02:43;;;;;;;4.13;2.80;;;;;;;5.32;82.12;94993.91;1787188;80;21470;-68
2021/11/03 01:05:14;;;;;;;5.23;3.67;;;;;;;5.20;82.22;94993.56;1786877;80;21160;-68
2021/11/03 01:07:41;;;;;;;7.30;3.37;;;;;;;5.19;82.80;94991.84;1787261;80;20979;-68
2021/11/03 01:10:10;;;;;;;3.20;2.50;;;;;;;5.20;83.11;94985.71;1787000;80;20983;-68
2021/11/03 01:12:38;;;;;;;5.60;2.87;;;;;;;5.23;82.78;94995.73;1787116;80;21075;-68
2021/11/03 01:15:12;;;;;;;4.27;3.20;;;;;;;5.14;82.79;94992.31;1787061;80;20990;-68
2021/11/03 01:17:39;;;;;;;4.77;3.50;;;;;;;4.96;82.13;94993.72;1787246;80;21030;-68
2021/11/03 01:20:10;;;;;;;4.50;3.20;;;;;;;4.80;82.70;95000.80;1786927;80;21078;-68
2021/11/03 01:22:37;;;;;;;5.00;3.40;;;;;;;4.72;82.78;95000.84;1787186;80;20987;-68
2021/11/03 01:25:06;;;;;;;3.83;2.83;;;;;;;4.59;82.59;95006.16;1786824;80;21102;-67
2021/11/03 01:27:33;;;;;;;4.30;3.37;;;;;;;4.46;82.53;95017.08;1787245;80;20991;-68
2021/11/03 01:30:00;;;;;;;3.60;2.07;;;;;;;4.39;82.81;95024.53;1786390;80;21082;-68
2021/11/03 01:32:26;;;;;;;4.10;2.97;;;;;;;4.32;82.83;95033.68;1787263;80;20971;-68
2021/11/03 01:34:53;;;;;;;4.90;3.20;;;;;;;4.18;82.72;95033.29;1786962;80;21106;-68
2021/11/03 01:37:20;;;;;;;7.23;2.47;;;;;;;4.05;82.92;95033.32;1787053;80;21488;-68
2021/11/03 01:39:46;;;;;;;4.17;2.70;;;;;;;3.88;83.08;95045.53;1786869;80;21090;-68
2021/11/03 01:42:14;;;;;;;2.40;2.10;;;;;;;3.82;83.28;95044.25;1786900;80;21501;-67
2021/11/03 01:44:40;;;;;;;3.70;2.43;;;;;;;3.80;83.35;95052.52;1786582;80;21078;-68
2021/11/03 01:47:44;;;;;;;3.40;2.60;;;;;;;3.78;83.47;95059.47;1786823;80;21027;-68
2021/11/03 01:50:17;;;;;;;2.47;2.13;;;;;;;3.68;83.46;95066.47;1789619;80;21899;-68
2021/11/03 01:52:49;;;;;;;3.53;2.30;;;;;;;3.54;83.85;95077.33;1795753;80;21568;-68
2021/11/03 01:55:17;;;;;;;4.00;2.43;;;;;;;3.48;83.90;95075.59;1764507;80;21499;-68
2021/11/03 01:57:49;;;;;;;4.07;2.30;;;;;;;3.45;84.12;95084.69;1795573;80;21034;-68
2021/11/03 02:00:27;;;;;;;3.10;2.50;;;;;;;3.39;84.02;95085.56;1794874;80;21090;-68
2021/11/03 02:03:06;;;;;;;4.00;2.40;;;;;;;3.37;84.26;95081.22;1795431;80;21054;-68
2021/11/03 02:05:35;;;;;;;3.87;2.03;;;;;;;3.40;84.56;95092.54;1764400;80;21022;-67
2021/11/03 02:08:05;;;;;;;3.50;2.30;;;;;;;3.30;84.29;95101.22;1795652;80;21026;-68
2021/11/03 02:10:32;;;;;;;4.07;2.43;;;;;;;3.24;84.35;95105.97;1763071;80;21026;-68
2021/11/03 02:12:59;;;;;;;3.10;2.00;;;;;;;3.25;84.58;95099.91;1795183;80;21002;-68
2021/11/03 02:15:26;;;;;;;3.93;2.07;;;;;;;3.24;84.24;95107.27;1795307;80;20994;-68
2021/11/03 02:17:56;;;;;;;2.70;1.87;;;;;;;3.14;83.95;95112.47;1795374;80;20971;-68
2021/11/03 02:20:25;;;;;;;4.23;2.20;;;;;;;3.06;84.26;95107.69;1795614;80;21543;-68
2021/11/03 02:23:40;;;;;;;2.87;1.70;;;;;;;3.12;84.82;95120.72;1795529;80;20939;-68
2021/11/03 02:26:24;;;;;;;3.27;2.00;;;;;;;3.06;84.21;95129.84;1795158;80;20971;-68
2021/11/03 02:28:51;;;;;;;2.83;1.98;;;;;;;2.91;83.95;95134.12;1795703;80;21018;-68
2021/11/03 02:31:43;;;;;;;2.50;1.83;;;;;;;2.76;84.00;95119.30;1794964;80;20991;-68
2021/11/03 02:34:18;;;;;;;3.67;2.67;;;;;;;2.86;84.51;95134.55;1795141;80;21049;-68
2021/11/03 02:37:03;;;;;;;3.77;2.53;;;;;;;2.75;84.10;95141.47;1795260;80;21093;-68
2021/11/03 02:39:45;;;;;;;7.03;3.20;;;;;;;2.65;84.59;95146.20;1795353;80;21480;-67
2021/11/03 02:42:14;;;;;;;3.43;2.37;;;;;;;2.52;84.06;95146.53;1795098;80;21046;-68
2021/11/03 02:44:43;;;;;;;3.30;2.40;;;;;;;2.36;83.83;95153.41;1795539;80;21006;-68
2021/11/03 02:47:11;;;;;;;2.90;2.13;;;;;;;2.25;84.39;95159.86;1795214;80;21552;-68
2021/11/03 02:49:40;;;;;;;5.50;2.60;;;;;;;2.14;84.47;95153.28;1795235;80;21469;-68
2021/11/03 02:52:20;;;;;;;2.97;2.10;;;;;;;2.14;84.72;95163.70;1764310;80;21054;-68
2021/11/03 02:54:47;;;;;;;2.73;1.90;;;;;;;2.11;84.70;95160.19;1795194;80;21496;-68
2021/11/03 02:57:15;;;;;;;4.90;3.33;;;;;;;2.01;84.50;95170.09;1795371;80;21064;-68
2021/11/03 02:59:43;;;;;;;4.87;2.57;;;;;;;1.95;84.33;95165.72;1764420;80;20978;-68
2021/11/03 03:02:10;;;;;;;6.33;3.53;;;;;;;1.84;85.54;95172.14;1794879;80;21113;-68
2021/11/03 03:04:45;;;;;;;15.93;8.50;;;;;;;1.84;85.39;95172.14;1795310;80;21010;-68
2021/11/03 03:07:15;;;;;;;7.50;4.43;;;;;;;1.83;85.72;95180.79;1793694;80;21066;-68
2021/11/03 03:09:42;;;;;;;4.07;2.43;;;;;;;1.79;85.60;95190.75;1795519;80;20991;-68
2021/11/03 03:12:14;;;;;;;3.30;2.10;;;;;;;1.84;85.64;95186.45;1795087;80;21099;-68
2021/11/03 03:14:44;;;;;;;;;;;;;;;1.82;85.45;95192.06;1798091;80;21097;-68
2021/11/03 03:17:14;;;;;;;5.60;2.80;;;;;;;1.76;86.00;95185.49;1795013;80;20108;-68
2021/11/03 03:19:42;;;;;;;4.23;2.90;;;;;;;1.80;85.91;95192.48;1795585;80;21041;-67
2021/11/03 03:22:12;;;;;;;4.20;2.57;;;;;;;1.83;85.68;95191.20;1795289;80;21118;-68
2021/11/03 03:24:40;;;;;;;3.07;2.30;;;;;;;1.80;85.38;95190.31;1795797;80;21492;-68
2021/11/03 03:27:07;;;;;;;6.33;1.97;;;;;;;1.75;85.06;95198.50;1795226;80;21511;-68
2021/11/03 03:29:35;;;;;;;4.60;3.00;;;;;;;1.67;85.82;95198.00;1795514;80;20991;-68
2021/11/03 03:32:04;;;;;;;4.03;2.00;;;;;;;1.63;85.58;95194.05;1795411;80;21113;-68
2021/11/03 03:34:32;;;;;;;2.53;2.10;;;;;;;1.55;85.33;95210.88;1795557;80;21100;-68
2021/11/03 03:37:00;;;;;;;2.93;1.93;;;;;;;1.60;85.77;95209.63;1795418;80;21030;-68
2021/11/03 03:39:29;;;;;;;4.00;1.70;;;;;;;1.59;85.58;95223.47;1764665;80;20990;-68
2021/11/03 03:42:07;;;;;;;2.90;1.57;;;;;;;1.56;85.15;95220.84;1795365;80;21110;-68
2021/11/03 03:44:35;;;;;;;3.57;2.10;;;;;;;1.50;85.31;95229.03;1764724;80;20991;-68
2021/11/03 03:47:02;;;;;;;8.03;4.63;;;;;;;1.51;85.79;95220.80;1795240;80;21046;-68
2021/11/03 03:49:31;;;;;;;5.03;3.20;;;;;;;1.55;85.92;95235.59;1795507;80;21029;-68
2021/11/03 03:51:57;;;;;;;4.93;3.47;;;;;;;1.38;85.91;95228.90;1795316;80;21114;-68
2021/11/03 03:54:26;;;;;;;2.60;2.10;;;;;;;1.30;85.97;95226.66;1795432;80;21512;-68
2021/11/03 03:56:53;;;;;;;3.53;2.57;;;;;;;1.36;86.03;95228.04;1795463;80;21586;-68
2021/11/03 03:59:20;;;;;;;3.50;2.50;;;;;;;1.39;85.73;95234.56;1795451;80;21002;-68
2021/11/03 04:01:49;;;;;;;2.97;1.93;;;;;;;1.38;85.79;95231.50;1795064;80;21090;-67
2021/11/03 04:04:18;;;;;;;1.80;1.43;;;;;;;1.41;85.92;95230.66;1795455;80;21034;-68
2021/11/03 04:06:45;;;;;;;2.23;1.80;;;;;;;1.36;85.49;95231.04;1795747;80;21003;-68
2021/11/03 04:09:12;;;;;;;2.87;2.03;;;;;;;1.21;85.04;95231.33;1795457;80;20998;-68
2021/11/03 04:11:39;;;;;;;3.27;1.80;;;;;;;1.19;85.73;95239.53;1795111;80;21564;-68
2021/11/03 04:14:08;;;;;;;4.37;2.40;;;;;;;1.16;85.64;95244.70;1795450;80;21551;-68
2021/11/03 04:16:36;;;;;;;3.77;2.80;;;;;;;1.07;85.19;95248.48;1795039;80;21126;-67
2021/11/03 04:19:04;;;;;;;3.50;2.40;;;;;;;1.04;85.76;95252.34;1795484;80;21022;-68
2021/11/03 04:21:32;;;;;;;3.50;2.20;;;;;;;1.03;85.74;95252.78;1795318;80;21026;-68
2021/11/03 04:23:58;;;;;;;3.40;2.00;;;;;;;1.05;86.13;95246.28;1795194;80;21079;-68
2021/11/03 04:26:32;;;;;;;3.70;2.53;;;;;;;1.11;86.06;95253.27;1795216;80;21030;-68
2021/11/03 04:29:03;;;;;;;2.43;1.80;;;;;;;1.15;86.28;95257.66;1795631;80;21102;-68
2021/11/03 04:31:30;;;;;;;5.93;2.17;;;;;;;1.09;85.63;95264.97;1795198;80;21078;-68
2021/11/03 04:33:57;;;;;;;5.00;3.40;;;;;;;1.03;85.57;95263.57;1795181;80;21038;-68
2021/11/03 04:36:25;;;;;;;4.80;2.77;;;;;;;1.00;85.86;95269.59;1795221;80;21058;-68
2021/11/03 04:38:55;;;;;;;3.03;1.80;;;;;;;1.02;85.89;95274.39;1795104;80;21094;-68
2021/11/03 04:41:23;;;;;;;3.13;2.10;;;;;;;1.11;85.91;95276.25;1795710;80;20990;-68
2021/11/03 04:43:52;;;;;;;6.97;3.27;;;;;;;1.13;85.80;95281.45;1795567;80;21037;-68
2021/11/03 04:46:19;;;;;;;2.60;1.90;;;;;;;1.05;85.33;95273.56;1795109;80;20978;-68
2021/11/03 04:48:47;;;;;;;2.77;1.70;;;;;;;1.12;85.69;95271.49;1795198;80;21086;-68
2021/11/03 04:51:15;;;;;;;2.73;1.93;;;;;;;1.12;85.39;95273.22;1791389;80;21524;-68
2021/11/03 04:53:43;;;;;;;22.63;9.40;;;;;;;1.08;85.20;95269.30;1786688;80;21058;-68
2021/11/03 04:56:14;;;;;;;55.43;19.03;;;;;;;1.00;84.99;95279.12;1787022;80;21042;-68
2021/11/03 04:58:42;;;;;;;3.93;2.30;;;;;;;0.88;85.11;95282.85;1787320;80;21042;-68
2021/11/03 05:01:09;;;;;;;4.43;2.37;;;;;;;0.81;85.24;95290.58;1786774;80;21011;-68
2021/11/03 05:03:36;;;;;;;20.53;9.83;;;;;;;0.78;85.50;95289.24;1786812;80;20979;-68
2021/11/03 05:06:06;;;;;;;11.23;5.47;;;;;;;0.75;85.76;95283.11;1786861;80;20991;-68
2021/11/03 05:08:35;;;;;;;4.80;2.73;;;;;;;0.71;85.57;95284.81;1787029;80;21055;-68
2021/11/03 05:11:01;;;;;;;2.60;2.03;;;;;;;0.64;85.07;95290.76;1786862;80;21051;-68
2021/11/03 05:13:29;;;;;;;3.33;2.43;;;;;;;0.55;85.24;95293.20;1786512;80;20987;-68
2021/11/03 05:15:56;;;;;;;3.37;2.00;;;;;;;0.57;85.84;95294.11;1786771;80;21106;-67
2021/11/03 05:18:23;;;;;;;3.00;2.00;;;;;;;0.50;85.43;95295.73;1787214;80;21496;-67
2021/11/03 05:20:49;;;;;;;3.10;1.90;;;;;;;0.45;85.96;95298.68;1786632;80;21039;-68
2021/11/03 05:23:16;;;;;;;4.23;2.13;;;;;;;0.44;86.13;95296.95;1786790;80;21092;-68
2021/11/03 05:25:43;;;;;;;2.97;1.70;;;;;;;0.39;86.23;95300.77;1787210;80;21110;-68
2021/11/03 05:28:11;;;;;;;3.03;2.03;;;;;;;0.41;86.08;95306.86;1786764;80;21564;-68
2021/11/03 05:30:38;;;;;;;4.00;2.50;;;;;;;0.51;86.50;95318.27;1787123;80;21058;-67
2021/11/03 05:33:05;;;;;;;3.57;2.53;;;;;;;0.63;86.66;95313.66;1786706;80;21019;-68
2021/11/03 05:35:31;;;;;;;4.57;2.53;;;;;;;0.72;86.79;95319.44;1786819;80;21006;-68
2021/11/03 05:37:58;;;;;;;4.17;2.40;;;;;;;0.79;86.50;95326.47;1787018;80;21497;-67
2021/11/03 05:40:27;;;;;;;5.17;3.63;;;;;;;0.83;85.89;95337.33;1787171;80;21026;-67
2021/11/03 05:42:54;;;;;;;7.77;5.17;;;;;;;0.88;85.95;95340.86;1786897;80;21075;-67
2021/11/03 05:45:22;;;;;;;11.73;6.53;;;;;;;0.93;85.91;95346.13;1787038;80;21018;-67
2021/11/03 05:47:49;;;;;;;9.40;6.30;;;;;;;0.96;85.49;95352.66;1786679;80;21079;-68
2021/11/03 05:50:24;;;;;;;11.60;4.87;;;;;;;0.95;85.17;95361.31;1787204;80;21484;-68
2021/11/03 05:52:51;;;;;;;10.60;5.97;;;;;;;0.92;85.04;95371.23;1786835;80;21090;-67
2021/11/03 05:55:19;;;;;;;8.40;5.60;;;;;;;0.90;84.89;95378.56;1786933;80;21042;-67
2021/11/03 05:57:46;;;;;;;4.73;3.63;;;;;;;0.88;85.42;95377.66;1786736;80;21074;-68
2021/11/03 06:00:33;;;;;;;6.27;4.27;;;;;;;0.84;85.03;95382.81;1786803;80;21117;-68
2021/11/03 06:03:01;;;;;;;14.37;8.43;;;;;;;0.80;85.31;95395.30;1786517;80;21019;-68
2021/11/03 06:05:29;;;;;;;15.80;8.10;;;;;;;0.75;86.08;95403.44;1787258;80;21034;-68
2021/11/03 06:08:04;;;;;;;22.53;11.10;;;;;;;0.78;86.27;95398.31;1787167;80;21075;-67
2021/11/03 06:10:39;;;;;;;10.40;6.97;;;;;;;0.82;85.99;95400.52;1787061;80;21054;-67
2021/11/03 06:13:08;;;;;;;10.70;5.80;;;;;;;0.89;86.03;95407.56;1786865;80;21058;-68
2021/11/03 06:15:37;;;;;;;9.03;5.50;;;;;;;0.95;86.66;95405.05;1787061;80;21010;-68
2021/11/03 06:18:05;;;;;;;11.97;7.50;;;;;;;0.97;86.18;95412.45;1786873;80;21026;-68
2021/11/03 06:20:33;;;;;;;11.17;6.77;;;;;;;1.02;86.50;95413.82;1787158;80;21098;-67
2021/11/03 06:22:59;;;;;;;15.50;9.33;;;;;;;1.11;86.51;95409.17;1787007;80;20999;-68
2021/11/03 06:25:27;;;;;;;13.27;4.00;;;;;;;1.17;86.55;95414.05;1787177;80;21418;-68
2021/11/03 06:27:56;;;;;;;11.30;6.07;;;;;;;1.27;86.34;95412.45;1787046;80;21059;-67
2021/11/03 06:30:31;;;;;;;4.90;3.03;;;;;;;1.27;86.05;95414.63;1787042;80;21034;-67
2021/11/03 06:32:58;;;;;;;11.50;5.83;;;;;;;1.37;86.28;95410.44;1786676;80;21007;-68
2021/11/03 06:35:26;;;;;;;10.40;5.40;;;;;;;1.47;86.52;95404.50;1787132;80;21082;-68
2021/11/03 06:37:54;;;;;;;6.37;4.53;;;;;;;1.58;86.49;95408.53;1787071;80;21002;-68
2021/11/03 06:40:24;;;;;;;3.83;2.73;;;;;;;1.73;86.61;95413.92;1786797;80;21107;-67
2021/11/03 06:42:51;;;;;;;4.90;3.57;;;;;;;1.86;86.28;95417.98;1787098;80;21027;-68
2021/11/03 06:45:20;;;;;;;4.07;3.23;;;;;;;1.94;85.81;95426.74;1786906;80;20982;-68
2021/11/03 06:47:48;;;;;;;6.10;4.50;;;;;;;2.00;85.78;95424.23;1787009;80;21114;-67
2021/11/03 06:50:20;;;;;;;7.87;4.90;;;;;;;2.15;86.17;95424.83;1787034;80;21022;-68
2021/11/03 06:52:50;;;;;;;7.07;5.23;;;;;;;2.42;86.80;95435.08;1793676;80;20998;-67
2021/11/03 06:55:17;;;;;;;8.40;6.03;;;;;;;2.62;86.61;95424.86;1795601;80;21082;-68
2021/11/03 06:57:44;;;;;;;7.87;5.87;;;;;;;2.79;86.43;95427.19;1795377;80;21109;-68
2021/11/03 07:00:16;;;;;;;6.47;5.13;;;;;;;2.95;86.23;95419.95;1795156;80;21027;-67
2021/11/03 07:02:43;;;;;;;7.53;5.20;;;;;;;3.04;85.55;95427.83;1795641;80;21061;-68
2021/11/03 07:05:09;;;;;;;4.63;3.63;;;;;;;3.17;85.27;95429.22;1795293;80;21011;-67
2021/11/03 07:07:36;;;;;;;6.63;5.37;;;;;;;3.27;84.85;95420.60;1795553;80;21560;-68
2021/11/03 07:10:07;;;;;;;6.47;4.80;;;;;;;3.24;84.19;95432.32;1795460;80;21019;-68
2021/11/03 07:12:35;;;;;;;6.37;4.63;;;;;;;3.21;83.73;95440.12;1795703;80;21011;-68
2021/11/03 07:15:01;;;;;;;24.37;15.63;;;;;;;3.34;84.58;95433.26;1795306;80;21141;-68
2021/11/03 07:17:28;;;;;;;15.80;12.40;;;;;;;3.44;84.30;95430.71;1795324;80;21010;-68
2021/11/03 07:19:55;;;;;;;10.60;6.90;;;;;;;3.45;84.30;95435.09;1795223;80;21090;-68
2021/11/03 07:22:21;;;;;;;12.27;8.33;;;;;;;3.48;84.06;95427.71;1795780;80;21010;-68
2021/11/03 07:24:48;;;;;;;13.20;8.83;;;;;;;3.50;84.08;95433.78;1795210;80;21087;-68
2021/11/03 07:27:14;;;;;;;19.57;11.90;;;;;;;3.54;84.18;95433.39;1795350;80;21045;-68
2021/11/03 07:29:42;;;;;;;19.50;14.90;;;;;;;3.56;84.20;95432.53;1795597;80;21053;-68
2021/11/03 07:32:09;;;;;;;9.10;6.73;;;;;;;3.66;84.45;95431.72;1795452;80;20951;-68
2021/11/03 07:34:36;;;;;;;10.33;7.13;;;;;;;3.85;85.18;95435.72;1795103;80;21520;-67
2021/11/03 07:37:05;;;;;;;10.87;7.23;;;;;;;4.01;85.00;95442.77;1795444;80;20979;-67
2021/11/03 07:39:33;;;;;;;16.23;10.17;;;;;;;4.15;84.79;95435.41;1795755;80;21022;-68
2021/11/03 07:42:01;;;;;;;12.03;8.37;;;;;;;4.23;84.50;95435.86;1795206;80;21046;-67
2021/11/03 07:44:30;;;;;;;10.93;5.87;;;;;;;4.36;84.45;95439.41;1795216;80;21018;-68
2021/11/03 07:46:56;;;;;;;21.97;10.07;;;;;;;4.45;84.71;95434.63;1795474;80;20987;-67
2021/11/03 07:49:23;;;;;;;11.30;7.37;;;;;;;4.65;85.08;95434.23;1794916;80;21026;-67
2021/11/03 07:51:50;;;;;;;15.47;10.27;;;;;;;4.94;85.62;95433.42;1792216;80;21018;-67
2021/11/03 07:54:17;;;;;;;27.03;18.40;;;;;;;5.23;85.39;95437.32;1786988;80;21541;-68
2021/11/03 07:56:45;;;;;;;18.27;9.27;;;;;;;5.47;84.85;95435.13;1786605;80;21011;-68
2021/11/03 07:59:16;;;;;;;8.70;6.10;;;;;;;5.75;84.49;95436.39;1787186;80;21552;-67
2021/11/03 08:01:44;;;;;;;22.73;12.80;;;;;;;5.99;83.90;95438.08;1787205;80;21079;-67
2021/11/03 08:04:10;;;;;;;10.17;6.17;;;;;;;6.20;83.64;95433.19;1786929;80;21011;-67
2021/11/03 08:06:39;;;;;;;7.10;4.80;;;;;;;6.39;82.27;95434.85;1786893;80;21075;-68
2021/11/03 08:09:08;;;;;;;8.87;6.20;;;;;;;6.62;82.26;95435.17;1787152;80;21492;-68
2021/11/03 08:11:57;;;;;;;8.33;5.53;;;;;;;6.75;80.85;95432.03;1787346;80;21007;-67
2021/11/03 08:14:28;;;;;;;21.67;11.47;;;;;;;6.94;81.19;95428.41;1787207;80;21002;-67
2021/11/03 08:17:09;;;;;;;26.30;12.03;;;;;;;7.24;81.31;95418.56;1754298;80;21484;-68
2021/11/03 08:19:51;;;;;;;23.37;11.13;;;;;;;7.47;80.93;95422.30;1787204;80;20971;-68
2021/11/03 08:22:21;;;;;;;;;;;;;;;7.65;78.02;95419.48;1789962;80;21464;-67
2021/11/03 08:24:49;;;;;;;9.23;6.23;;;;;;;7.83;77.90;95425.43;1786978;80;20405;-67
2021/11/03 08:27:17;;;;;;;10.33;6.93;;;;;;;7.96;76.72;95431.86;1786910;80;21142;-67
2021/11/03 08:29:46;;;;;;;9.47;5.27;;;;;;;8.12;77.28;95435.18;1787168;80;21054;-68
2021/11/03 08:32:16;;;;;;;7.50;5.20;;;;;;;8.23;75.19;95427.16;1786951;80;20989;-69
2021/11/03 08:34:44;;;;;;;11.90;6.13;;;;;;;8.27;72.50;95430.64;1787155;80;20987;-68
2021/11/03 08:37:15;;;;;;;11.03;4.47;;;;;;;8.40;73.64;95433.56;1787014;80;20986;-68
2021/11/03 08:39:46;;;;;;;5.37;4.20;;;;;;;8.52;73.12;95436.04;1787329;80;21006;-68
2021/11/03 08:42:13;;;;;;;5.30;4.37;;;;;;;8.67;73.50;95434.97;1787261;80;21078;-68
2021/11/03 08:44:40;;;;;;;7.97;4.77;;;;;;;8.82;72.51;95433.44;1786984;80;21512;-67
2021/11/03 08:47:09;;;;;;;7.17;5.07;;;;;;;8.96;71.88;95433.67;1787213;80;21062;-68
2021/11/03 08:49:38;;;;;;;4.00;2.87;;;;;;;9.04;70.52;95433.96;1785999;80;21075;-68
2021/11/03 08:52:07;;;;;;;4.70;3.30;;;;;;;9.21;70.79;95439.43;1789498;80;21038;-68
2021/11/03 08:54:45;;;;;;;5.33;4.60;;;;;;;9.33;71.56;95439.69;1795544;80;21564;-68
2021/11/03 08:57:12;;;;;;;5.63;3.87;;;;;;;9.40;70.25;95441.30;1795283;80;21089;-68
2021/11/03 08:59:39;;;;;;;8.13;6.63;;;;;;;9.48;69.67;95438.12;1794981;80;21555;-68
2021/11/03 09:02:07;;;;;;;7.30;4.93;;;;;;;9.51;68.54;95440.23;1795591;80;21003;-68
2021/11/03 09:04:35;;;;;;;8.50;6.30;;;;;;;9.63;68.31;95441.80;1795298;80;21045;-68
2021/11/03 09:07:04;;;;;;;6.70;4.70;;;;;;;9.74;67.56;95442.47;1795479;80;21089;-66
2021/11/03 09:09:30;;;;;;;6.17;4.40;;;;;;;9.88;68.66;95441.38;1795424;80;21050;-66
2021/11/03 09:11:57;;;;;;;14.33;8.87;;;;;;;10.05;68.40;95433.98;1795389;80;21492;-66
2021/11/03 09:14:23;;;;;;;3.43;3.13;;;;;;;10.17;67.14;95422.35;1795167;80;21079;-65
2021/11/03 09:16:51;;;;;;;4.37;2.97;;;;;;;10.27;67.87;95418.63;1795076;80;21461;-66
2021/11/03 09:19:18;;;;;;;4.10;3.17;;;;;;;10.35;66.74;95416.73;1795196;80;21099;-65
2021/11/03 09:21:46;;;;;;;3.53;3.03;;;;;;;10.42;66.52;95413.52;1795190;80;21110;-65
2021/11/03 09:24:13;;;;;;;6.27;3.60;;;;;;;10.55;66.72;95422.05;1795224;80;21129;-65
2021/11/03 09:26:41;;;;;;;5.00;3.90;;;;;;;10.65;67.05;95422.72;1795061;80;20987;-64
2021/11/03 09:29:10;;;;;;;5.30;3.27;;;;;;;10.80;67.43;95415.33;1795570;80;20982;-65
2021/11/03 09:31:38;;;;;;;5.20;3.03;;;;;;;10.81;63.83;95411.81;1795266;80;21018;-65
2021/11/03 09:34:05;;;;;;;6.85;3.72;;;;;;;10.83;64.62;95411.75;1795189;80;21034;-65
2021/11/03 09:36:34;;;;;;;4.67;3.53;;;;;;;10.96;65.92;95413.66;1795126;80;21049;-65
2021/11/03 09:39:01;;;;;;;5.28;3.40;;;;;;;11.11;65.69;95410.66;1795560;80;20978;-65
2021/11/03 09:41:32;;;;;;;5.22;3.62;;;;;;;11.17;64.93;95415.81;1795012;80;21090;-66
2021/11/03 09:44:19;;;;;;;8.33;4.20;;;;;;;11.21;64.58;95412.63;1795467;80;20978;-66
2021/11/03 09:47:17;;;;;;;11.33;6.60;;;;;;;11.30;64.81;95412.88;1795185;80;21576;-66
2021/11/03 09:49:57;;;;;;;9.88;6.08;;;;;;;11.36;63.81;95412.72;1795362;80;21007;-66
2021/11/03 09:52:33;;;;;;;5.35;4.30;;;;;;;11.51;64.78;95410.16;1792508;80;21014;-66
2021/11/03 09:55:15;;;;;;;6.90;5.03;;;;;;;11.69;64.42;95409.25;1786956;80;21054;-66
2021/11/03 09:58:02;;;;;;;5.62;4.65;;;;;;;11.98;65.41;95410.73;1785785;80;21118;-66
2021/11/03 10:00:42;;;;;;;4.47;3.95;;;;;;;12.41;64.20;95407.75;1786839;80;21083;-66
2021/11/03 10:03:37;;;;;;;5.87;4.00;;;;;;;12.79;57.91;95401.78;1785626;80;21027;-66
2021/11/03 10:06:24;;;;;;;4.65;3.62;;;;;;;13.06;58.50;95397.89;1786815;80;21015;-66
2021/11/03 10:08:54;;;;;;;3.92;3.52;;;;;;;13.40;58.25;95397.69;1786963;80;21004;-66
2021/11/03 10:11:32;;;;;;;3.80;3.15;;;;;;;13.91;55.93;95397.30;1787073;80;21067;-66
2021/11/03 10:14:00;;;;;;;3.62;3.20;;;;;;;14.15;53.96;95392.47;1786782;80;21066;-66
2021/11/03 10:16:41;;;;;;;3.55;3.22;;;;;;;14.49;54.78;95383.30;1786619;80;21015;-66
2021/11/03 10:19:16;;;;;;;3.87;3.42;;;;;;;14.97;53.01;95383.70;1786673;80;20975;-66
2021/11/03 10:21:57;;;;;;;4.55;3.77;;;;;;;15.28;52.03;95383.81;1778108;80;21011;-66
2021/11/03 10:24:36;;;;;;;4.87;4.03;;;;;;;15.51;50.42;95378.41;1786815;80;21074;-66
2021/11/03 10:27:20;;;;;;;6.00;4.40;;;;;;;15.77;50.26;95374.70;1787028;80;21082;-66
2021/11/03 10:30:17;;;;;;;5.55;4.92;;;;;;;15.91;50.68;95378.09;1786883;80;21018;-66
2021/11/03 10:32:44;;;;;;;5.70;4.35;;;;;;;16.23;49.72;95386.02;1718140;83;21556;-66
2021/11/03 10:35:39;;;;;;;5.70;4.55;;;;;;;16.57;49.87;95384.49;1767576;80;21089;-66
2021/11/03 10:38:19;;;;;;;6.10;4.50;;;;;;;17.01;50.19;95389.61;1724470;82;21504;-66
2021/11/03 10:40:58;;;;;;;6.47;4.42;;;;;;;17.25;46.60;95393.38;1787184;80;20982;-66
2021/11/03 10:43:33;;;;;;;5.15;4.25;;;;;;;16.92;44.23;95386.52;1786834;80;21013;-66
2021/11/03 10:46:23;;;;;;;5.97;4.33;;;;;;;17.26;47.13;95385.75;1787375;80;21571;-66
2021/11/03 10:49:13;;;;;;;5.67;4.87;;;;;;;17.08;45.53;95372.84;1786708;80;21049;-66
2021/11/03 10:51:44;;;;;;;7.42;4.80;;;;;;;17.50;46.77;95375.71;1786949;80;21097;-66
2021/11/03 10:54:19;;;;;;;6.35;5.58;;;;;;;17.72;44.83;95372.38;1799928;80;21104;-66
2021/11/03 10:56:53;;;;;;;5.47;4.67;;;;;;;17.73;45.36;95375.42;1800981;80;21115;-66
2021/11/03 10:59:30;;;;;;;5.80;4.92;;;;;;;18.09;45.10;95376.33;1800230;80;21067;-66
2021/11/03 11:02:22;;;;;;;6.25;5.62;;;;;;;18.40;44.52;95370.27;1800720;80;21514;-66
2021/11/03 11:04:50;;;;;;;7.78;6.10;;;;;;;18.43;43.06;95363.42;1800569;80;21005;-66
2021/11/03 11:07:30;;;;;;;7.15;5.78;;;;;;;18.32;42.72;95377.80;1801280;80;21073;-66
2021/11/03 11:10:25;;;;;;;6.80;6.03;;;;;;;18.59;44.55;95360.78;1800884;80;21052;-65
2021/11/03 11:12:55;;;;;;;7.00;6.30;;;;;;;18.53;42.94;95362.46;1800628;80;21076;-66
2021/11/03 11:15:33;;;;;;;7.40;6.60;;;;;;;18.70;42.11;95366.42;1801105;80;21601;-65
2021/11/03 11:18:50;;;;;;;8.78;6.40;;;;;;;18.94;42.18;95359.37;1800802;80;21116;-65
2021/11/03 11:21:35;;;;;;;8.73;6.42;;;;;;;18.55;40.51;95349.89;1801116;80;21000;-66
2021/11/03 11:24:19;;;;;;;7.45;6.67;;;;;;;18.77;40.41;95344.25;1800840;80;21034;-66
2021/11/03 11:27:03;;;;;;;7.28;6.40;;;;;;;18.70;41.52;95345.05;1800551;80;21024;-65
2021/11/03 11:30:01;;;;;;;7.17;6.42;;;;;;;19.10;42.01;95337.53;1801125;80;20980;-66
2021/11/03 11:32:51;;;;;;;6.58;5.65;;;;;;;19.35;40.59;95334.78;1800608;80;21128;-66
2021/11/03 11:35:47;;;;;;;6.10;5.50;;;;;;;19.81;40.12;95339.70;1800741;80;20973;-66
2021/11/03 11:38:42;;;;;;;6.08;5.47;;;;;;;19.66;38.78;95343.25;1800665;80;21526;-66
2021/11/03 11:41:29;;;;;;;5.83;5.22;;;;;;;19.98;38.81;95340.05;1801033;80;21008;-66
2021/11/03 11:44:19;;;;;;;5.92;5.42;;;;;;;20.32;38.00;95333.98;1801147;80;21044;-66
2021/11/03 11:46:48;;;;;;;6.87;6.17;;;;;;;20.41;37.87;95329.86;1801000;80;20997;-66
2021/11/03 11:49:28;;;;;;;7.17;6.08;;;;;;;20.28;37.93;95325.25;1800613;80;21088;-66
2021/11/03 11:52:15;;;;;;;8.70;6.62;;;;;;;20.18;37.71;95332.12;1800882;80;21043;-66
2021/11/03 11:55:14;;;;;;;7.83;6.42;;;;;;;19.97;36.98;95332.09;1800766;80;21029;-66
2021/11/03 11:57:46;;;;;;;7.65;6.33;;;;;;;19.75;37.32;95327.14;1801274;80;20992;-66
2021/11/03 12:00:20;;;;;;;8.48;7.28;;;;;;;19.86;37.20;95338.95;1796742;80;21088;-66